createdAt,value
2023-10-21T00:00:02.640Z,11.91
2023-10-21T00:00:23.516Z,11.94
2023-10-21T00:00:44.456Z,11.90
2023-10-21T00:01:05.398Z,11.90
2023-10-21T00:01:26.328Z,11.87
2023-10-21T00:01:47.306Z,11.88
2023-10-21T00:02:08.250Z,11.86
2023-10-21T00:02:29.188Z,11.78
2023-10-21T00:02:50.189Z,11.78
2023-10-21T00:03:11.143Z,11.77
2023-10-21T00:03:32.184Z,11.73
2023-10-21T00:03:52.667Z,11.72
2023-10-21T00:04:13.673Z,11.70
2023-10-21T00:04:34.178Z,11.69
2023-10-21T00:04:55.119Z,11.68
2023-10-21T00:05:16.070Z,11.63
2023-10-21T00:05:37.019Z,11.62
2023-10-21T00:05:58.023Z,11.60
2023-10-21T00:06:18.947Z,11.60
2023-10-21T00:06:39.882Z,11.59
2023-10-21T00:07:00.841Z,11.60
2023-10-21T00:07:21.774Z,11.60
2023-10-21T00:07:42.691Z,11.63
2023-10-21T00:08:03.672Z,11.66
2023-10-21T00:08:24.637Z,11.66
2023-10-21T00:08:45.587Z,11.65
2023-10-21T00:09:06.502Z,11.62
2023-10-21T00:09:27.468Z,11.59
2023-10-21T00:09:48.384Z,11.55
2023-10-21T00:10:09.337Z,11.54
2023-10-21T00:10:30.267Z,11.50
2023-10-21T00:10:51.205Z,11.47
2023-10-21T00:11:12.145Z,11.48
2023-10-21T00:11:33.071Z,11.48
2023-10-21T00:11:54.023Z,11.48
2023-10-21T00:12:14.980Z,11.52
2023-10-21T00:12:35.907Z,11.51
2023-10-21T00:12:56.834Z,11.55
2023-10-21T00:13:17.791Z,11.57
2023-10-21T00:13:38.712Z,11.62
2023-10-21T00:13:59.684Z,11.65
2023-10-21T00:14:20.188Z,11.65
2023-10-21T00:14:41.135Z,11.69
2023-10-21T00:15:02.164Z,11.72
2023-10-21T00:15:22.603Z,11.75
2023-10-21T00:15:43.534Z,11.77
2023-10-21T00:16:04.488Z,11.78
2023-10-21T00:16:25.458Z,11.80
2023-10-21T00:16:46.407Z,11.77
2023-10-21T00:17:07.294Z,11.80
2023-10-21T00:17:28.254Z,11.77
2023-10-21T00:17:49.257Z,11.77
2023-10-21T00:18:09.783Z,11.73
2023-10-21T00:18:30.432Z,11.70
2023-10-21T00:18:50.981Z,11.70
2023-10-21T00:19:11.909Z,11.66
2023-10-21T00:19:32.910Z,11.66
2023-10-21T00:19:53.369Z,11.60
2023-10-21T00:20:14.309Z,11.59
2023-10-21T00:20:35.231Z,11.55
2023-10-21T00:20:56.267Z,11.52
2023-10-21T00:21:17.230Z,11.50
2023-10-21T00:21:38.098Z,11.47
2023-10-21T00:21:59.036Z,11.44
2023-10-21T00:22:19.967Z,11.41
2023-10-21T00:22:40.911Z,11.40
2023-10-21T00:23:01.866Z,11.37
2023-10-21T00:23:22.834Z,11.35
2023-10-21T00:23:43.802Z,11.35
2023-10-21T00:24:04.717Z,11.35
2023-10-21T00:24:25.632Z,11.32
2023-10-21T00:24:46.564Z,11.33
2023-10-21T00:25:07.536Z,11.30
2023-10-21T00:25:28.473Z,11.26
2023-10-21T00:25:49.392Z,11.26
2023-10-21T00:26:10.352Z,11.23
2023-10-21T00:26:31.291Z,11.19
2023-10-21T00:26:52.238Z,11.19
2023-10-21T00:27:13.206Z,11.18
2023-10-21T00:27:34.075Z,11.18
2023-10-21T00:27:55.000Z,11.18
2023-10-21T00:28:15.975Z,11.17
2023-10-21T00:28:36.922Z,11.17
2023-10-21T00:28:57.886Z,11.15
2023-10-21T00:29:18.828Z,11.15
2023-10-21T00:29:39.789Z,11.15
2023-10-21T00:30:00.814Z,11.15
2023-10-21T00:30:21.731Z,11.10
2023-10-21T00:30:42.682Z,11.11
2023-10-21T00:31:03.611Z,11.12
2023-10-21T00:31:24.568Z,11.10
2023-10-21T00:31:45.508Z,11.11
2023-10-21T00:32:06.431Z,11.10
2023-10-21T00:32:27.386Z,11.08
2023-10-21T00:32:48.445Z,11.08
2023-10-21T00:33:08.968Z,11.07
2023-10-21T00:33:29.441Z,11.05
2023-10-21T00:33:50.319Z,11.04
2023-10-21T00:34:11.276Z,11.08
2023-10-21T00:34:32.198Z,11.05
2023-10-21T00:34:53.150Z,11.05
2023-10-21T00:35:14.120Z,11.05
2023-10-21T00:35:35.052Z,11.02
2023-10-21T00:35:55.987Z,11.04
2023-10-21T00:36:16.951Z,11.04
2023-10-21T00:36:37.842Z,11.00
2023-10-21T00:36:58.815Z,11.00
2023-10-21T00:37:19.774Z,10.99
2023-10-21T00:37:40.724Z,10.99
2023-10-21T00:38:01.646Z,10.99
2023-10-21T00:38:22.570Z,10.97
2023-10-21T00:38:43.580Z,10.96
2023-10-21T00:39:04.523Z,10.99
2023-10-21T00:39:25.394Z,10.96
2023-10-21T00:39:46.405Z,10.97
2023-10-21T00:40:07.354Z,10.97
2023-10-21T00:40:28.296Z,10.96
2023-10-21T00:40:49.237Z,10.96
2023-10-21T00:41:10.333Z,10.96
2023-10-21T00:41:30.763Z,10.96
2023-10-21T00:41:51.735Z,10.97
2023-10-21T00:42:12.678Z,10.94
2023-10-21T00:42:33.633Z,10.94
2023-10-21T00:42:54.584Z,10.96
2023-10-21T00:43:15.502Z,10.94
2023-10-21T00:43:36.447Z,10.97
2023-10-21T00:43:57.419Z,10.96
2023-10-21T00:44:18.331Z,10.97
2023-10-21T00:44:39.268Z,10.99
2023-10-21T00:45:00.336Z,10.97
2023-10-21T00:45:20.811Z,10.99
2023-10-21T00:45:41.767Z,10.99
2023-10-21T00:46:02.692Z,11.00
2023-10-21T00:46:23.684Z,11.00
2023-10-21T00:46:44.600Z,11.02
2023-10-21T00:47:05.529Z,11.02
2023-10-21T00:47:26.523Z,11.02
2023-10-21T00:47:47.550Z,11.04
2023-10-21T00:48:07.994Z,11.04
2023-10-21T00:48:29.044Z,11.04
2023-10-21T00:48:49.572Z,11.05
2023-10-21T00:49:09.965Z,11.07
2023-10-21T00:49:30.906Z,11.07
2023-10-21T00:49:51.836Z,11.08
2023-10-21T00:50:12.782Z,11.07
2023-10-21T00:50:33.715Z,11.08
2023-10-21T00:50:54.809Z,11.10
2023-10-21T00:51:15.218Z,11.10
2023-10-21T00:51:36.113Z,11.08
2023-10-21T00:51:57.060Z,11.04
2023-10-21T00:52:17.986Z,11.02
2023-10-21T00:52:38.928Z,11.05
2023-10-21T00:52:59.875Z,11.05
2023-10-21T00:53:20.959Z,11.05
2023-10-21T00:53:41.627Z,11.10
2023-10-21T00:54:02.427Z,11.12
2023-10-21T00:54:22.939Z,11.12
2023-10-21T00:54:43.877Z,11.17
2023-10-21T00:55:04.838Z,11.19
2023-10-21T00:55:25.759Z,11.26
2023-10-21T00:55:46.681Z,11.29
2023-10-21T00:56:07.610Z,11.29
2023-10-21T00:56:28.552Z,11.32
2023-10-21T00:56:49.524Z,11.35
2023-10-21T00:57:10.574Z,11.36
2023-10-21T00:57:31.343Z,11.40
2023-10-21T00:57:52.300Z,11.45
2023-10-21T00:58:13.228Z,11.50
2023-10-21T00:58:34.184Z,11.54
2023-10-21T00:58:55.128Z,11.59
2023-10-21T00:59:16.043Z,11.62
2023-10-21T00:59:37.177Z,11.62
2023-10-21T00:59:57.893Z,11.69
2023-10-21T01:00:18.886Z,11.69
2023-10-21T01:00:39.779Z,11.72
2023-10-21T01:01:00.705Z,11.77
2023-10-21T01:01:21.657Z,11.80
2023-10-21T01:01:43.657Z,11.81
2023-10-21T01:02:03.557Z,11.87
2023-10-21T01:02:24.601Z,11.88
2023-10-21T01:02:45.203Z,11.87
2023-10-21T01:03:05.771Z,11.90
2023-10-21T01:03:26.284Z,11.91
2023-10-21T01:03:47.130Z,11.91
2023-10-21T01:04:07.734Z,11.90
2023-10-21T01:04:28.398Z,11.90
2023-10-21T01:04:48.837Z,11.94
2023-10-21T01:05:09.753Z,11.97
2023-10-21T01:05:30.707Z,11.97
2023-10-21T01:05:51.680Z,12.03
2023-10-21T01:06:12.675Z,12.07
2023-10-21T01:06:34.559Z,12.07
2023-10-21T01:06:54.480Z,12.07
2023-10-21T01:07:15.412Z,12.09
2023-10-21T01:07:36.351Z,12.10
2023-10-21T01:07:57.303Z,12.12
2023-10-21T01:08:18.272Z,12.13
2023-10-21T01:08:39.234Z,12.18
2023-10-21T01:09:00.235Z,12.21
2023-10-21T01:09:21.235Z,12.21
2023-10-21T01:09:42.149Z,12.18
2023-10-21T01:10:03.361Z,12.17
2023-10-21T01:10:23.882Z,12.18
2023-10-21T01:10:44.345Z,12.17
2023-10-21T01:11:05.305Z,12.18
2023-10-21T01:11:26.256Z,12.17
2023-10-21T01:11:47.228Z,12.17
2023-10-21T01:12:08.277Z,12.15
2023-10-21T01:12:28.714Z,12.18
2023-10-21T01:12:49.667Z,12.22
2023-10-21T01:13:10.625Z,12.22
2023-10-21T01:13:31.551Z,12.21
2023-10-21T01:13:52.492Z,12.20
2023-10-21T01:14:13.537Z,12.21
2023-10-21T01:14:34.065Z,12.21
2023-10-21T01:14:54.519Z,12.20
2023-10-21T01:15:15.522Z,12.20
2023-10-21T01:15:36.487Z,12.20
2023-10-21T01:15:57.142Z,12.20
2023-10-21T01:16:17.570Z,12.17
2023-10-21T01:16:38.481Z,12.18
2023-10-21T01:16:59.434Z,12.17
2023-10-21T01:17:20.379Z,12.15
2023-10-21T01:17:41.454Z,12.12
2023-10-21T01:18:02.021Z,12.12
2023-10-21T01:18:24.841Z,12.13
2023-10-21T01:18:43.354Z,12.09
2023-10-21T01:19:04.236Z,12.09
2023-10-21T01:19:25.200Z,12.10
2023-10-21T01:19:46.168Z,12.09
2023-10-21T01:20:07.079Z,12.03
2023-10-21T01:20:28.023Z,11.97
2023-10-21T01:20:49.029Z,11.91
2023-10-21T01:21:09.475Z,11.91
2023-10-21T01:21:30.532Z,11.91
2023-10-21T01:21:50.961Z,11.91
2023-10-21T01:22:11.940Z,11.94
2023-10-21T01:22:32.863Z,11.94
2023-10-21T01:22:53.798Z,11.95
2023-10-21T01:23:14.838Z,11.99
2023-10-21T01:23:36.030Z,12.03
2023-10-21T01:23:56.000Z,12.07
2023-10-21T01:24:16.953Z,12.12
2023-10-21T01:24:37.855Z,12.13
2023-10-21T01:24:58.950Z,12.15
2023-10-21T01:25:19.433Z,12.17
2023-10-21T01:25:40.424Z,12.13
2023-10-21T01:26:00.902Z,12.18
2023-10-21T01:26:21.849Z,12.20
2023-10-21T01:26:42.864Z,12.22
2023-10-21T01:27:03.816Z,12.31
2023-10-21T01:27:24.834Z,12.39
2023-10-21T01:27:45.697Z,12.47
2023-10-21T01:28:06.646Z,12.54
2023-10-21T01:28:27.595Z,12.58
2023-10-21T01:28:48.506Z,12.61
2023-10-21T01:29:09.473Z,12.65
2023-10-21T01:29:30.452Z,12.68
2023-10-21T01:29:51.484Z,12.72
2023-10-21T01:30:12.435Z,12.73
2023-10-21T01:30:33.346Z,12.75
2023-10-21T01:30:54.320Z,12.76
2023-10-21T01:31:15.264Z,12.75
2023-10-21T01:31:36.195Z,12.76
2023-10-21T01:31:57.136Z,12.76
2023-10-21T01:32:18.065Z,12.76
2023-10-21T01:32:39.090Z,12.75
2023-10-21T01:33:00.001Z,12.70
2023-10-21T01:33:21.819Z,12.68
2023-10-21T01:33:41.938Z,12.68
2023-10-21T01:34:02.527Z,12.61
2023-10-21T01:34:22.968Z,12.60
2023-10-21T01:34:43.887Z,12.54
2023-10-21T01:35:04.871Z,12.49
2023-10-21T01:35:25.788Z,12.46
2023-10-21T01:35:46.854Z,12.37
2023-10-21T01:36:07.323Z,12.28
2023-10-21T01:36:28.236Z,12.27
2023-10-21T01:36:49.150Z,12.28
2023-10-21T01:37:10.077Z,12.28
2023-10-21T01:37:31.023Z,12.29
2023-10-21T01:37:51.959Z,12.32
2023-10-21T01:38:13.954Z,12.36
2023-10-21T01:38:33.905Z,12.40
2023-10-21T01:38:54.923Z,12.45
2023-10-21T01:39:15.898Z,12.45
2023-10-21T01:39:36.872Z,12.47
2023-10-21T01:39:57.294Z,12.50
2023-10-21T01:40:18.235Z,12.47
2023-10-21T01:40:39.170Z,12.49
2023-10-21T01:41:00.191Z,12.50
2023-10-21T01:41:20.927Z,12.50
2023-10-21T01:41:41.390Z,12.50
2023-10-21T01:42:02.312Z,12.50
2023-10-21T01:42:23.272Z,12.50
2023-10-21T01:42:44.175Z,12.53
2023-10-21T01:43:05.134Z,12.50
2023-10-21T01:43:26.106Z,12.50
2023-10-21T01:43:47.026Z,12.47
2023-10-21T01:44:07.970Z,12.50
2023-10-21T01:44:28.915Z,12.53
2023-10-21T01:44:49.923Z,12.49
2023-10-21T01:45:10.679Z,12.50
2023-10-21T01:45:31.071Z,12.49
2023-10-21T01:45:52.026Z,12.47
2023-10-21T01:46:13.060Z,12.49
2023-10-21T01:46:33.437Z,12.46
2023-10-21T01:46:54.416Z,12.47
2023-10-21T01:47:15.385Z,12.46
2023-10-21T01:47:36.326Z,12.45
2023-10-21T01:47:57.005Z,12.42
2023-10-21T01:48:17.487Z,12.40
2023-10-21T01:48:37.988Z,12.35
2023-10-21T01:48:58.905Z,12.31
2023-10-21T01:49:19.868Z,12.27
2023-10-21T01:49:40.838Z,12.27
2023-10-21T01:50:01.755Z,12.25
2023-10-21T01:50:22.693Z,12.22
2023-10-21T01:50:43.648Z,12.22
2023-10-21T01:51:04.596Z,12.22
2023-10-21T01:51:25.548Z,12.21
2023-10-21T01:51:46.473Z,12.20
2023-10-21T01:52:07.419Z,12.18
2023-10-21T01:52:28.314Z,12.15
2023-10-21T01:52:49.268Z,12.13
2023-10-21T01:53:10.290Z,12.12
2023-10-21T01:53:30.736Z,12.10
2023-10-21T01:53:51.742Z,12.12
2023-10-21T01:54:12.698Z,12.10
2023-10-21T01:54:33.597Z,12.04
2023-10-21T01:54:54.572Z,12.02
2023-10-21T01:55:15.521Z,11.99
2023-10-21T01:55:36.442Z,11.97
2023-10-21T01:55:57.377Z,11.95
2023-10-21T01:56:18.344Z,11.90
2023-10-21T01:56:39.314Z,11.90
2023-10-21T01:57:00.251Z,11.88
2023-10-21T01:57:21.214Z,11.87
2023-10-21T01:57:42.161Z,11.86
2023-10-21T01:58:03.102Z,11.87
2023-10-21T01:58:24.068Z,11.83
2023-10-21T01:58:45.029Z,11.83
2023-10-21T01:59:05.953Z,11.81
2023-10-21T01:59:26.887Z,11.80
2023-10-21T01:59:47.833Z,11.78
2023-10-21T02:00:08.839Z,11.75
2023-10-21T02:00:29.734Z,11.72
2023-10-21T02:00:50.714Z,11.69
2023-10-21T02:01:11.813Z,11.66
2023-10-21T02:01:32.270Z,11.62
2023-10-21T02:01:53.194Z,11.59
2023-10-21T02:02:14.187Z,11.57
2023-10-21T02:02:35.171Z,11.52
2023-10-21T02:02:56.255Z,11.51
2023-10-21T02:03:16.768Z,11.48
2023-10-21T02:03:37.542Z,11.48
2023-10-21T02:03:58.121Z,11.45
2023-10-21T02:04:18.536Z,11.47
2023-10-21T02:04:39.487Z,11.45
2023-10-21T02:05:00.436Z,11.45
2023-10-21T02:05:21.387Z,11.45
2023-10-21T02:05:42.280Z,11.45
2023-10-21T02:06:03.295Z,11.41
2023-10-21T02:06:24.230Z,11.43
2023-10-21T02:06:45.187Z,11.44
2023-10-21T02:07:06.091Z,11.44
2023-10-21T02:07:27.055Z,11.41
2023-10-21T02:07:47.996Z,11.37
2023-10-21T02:08:08.911Z,11.36
2023-10-21T02:08:29.840Z,11.36
2023-10-21T02:08:50.778Z,11.35
2023-10-21T02:09:11.787Z,11.35
2023-10-21T02:09:32.711Z,11.33
2023-10-21T02:09:53.659Z,11.32
2023-10-21T02:10:14.573Z,11.32
2023-10-21T02:10:35.519Z,11.30
2023-10-21T02:10:56.434Z,11.27
2023-10-21T02:11:17.396Z,11.26
2023-10-21T02:11:37.962Z,11.23
2023-10-21T02:11:58.956Z,11.23
2023-10-21T02:12:19.891Z,11.22
2023-10-21T02:12:40.822Z,11.19
2023-10-21T02:13:01.742Z,11.19
2023-10-21T02:13:22.700Z,11.19
2023-10-21T02:13:43.671Z,11.17
2023-10-21T02:14:04.635Z,11.17
2023-10-21T02:14:25.552Z,11.15
2023-10-21T02:14:46.502Z,11.15
2023-10-21T02:15:07.546Z,11.15
2023-10-21T02:15:27.948Z,11.14
2023-10-21T02:15:48.902Z,11.12
2023-10-21T02:16:09.861Z,11.10
2023-10-21T02:16:30.758Z,11.11
2023-10-21T02:16:51.713Z,11.18
2023-10-21T02:17:12.658Z,11.23
2023-10-21T02:17:33.639Z,11.27
2023-10-21T02:17:54.630Z,11.33
2023-10-21T02:18:15.147Z,11.36
2023-10-21T02:18:35.582Z,11.40
2023-10-21T02:18:56.549Z,11.41
2023-10-21T02:19:17.018Z,11.41
2023-10-21T02:19:37.947Z,11.45
2023-10-21T02:19:58.875Z,11.55
2023-10-21T02:20:19.837Z,11.68
2023-10-21T02:20:40.817Z,11.77
2023-10-21T02:21:01.750Z,11.83
2023-10-21T02:21:22.697Z,11.91
2023-10-21T02:21:43.613Z,11.97
2023-10-21T02:22:04.576Z,12.00
2023-10-21T02:22:25.604Z,12.03
2023-10-21T02:22:46.542Z,12.04
2023-10-21T02:23:07.442Z,12.04
2023-10-21T02:23:28.397Z,12.06
2023-10-21T02:23:49.307Z,12.09
2023-10-21T02:24:10.303Z,12.06
2023-10-21T02:24:31.216Z,12.07
2023-10-21T02:24:52.177Z,12.06
2023-10-21T02:25:14.465Z,12.04
2023-10-21T02:25:34.021Z,12.03
2023-10-21T02:25:54.658Z,12.03
2023-10-21T02:26:15.587Z,11.99
2023-10-21T02:26:37.191Z,11.99
2023-10-21T02:26:57.092Z,11.94
2023-10-21T02:27:18.041Z,11.88
2023-10-21T02:27:38.931Z,11.83
2023-10-21T02:27:59.851Z,11.81
2023-10-21T02:28:20.794Z,11.80
2023-10-21T02:28:41.735Z,11.75
2023-10-21T02:29:02.699Z,11.73
2023-10-21T02:29:23.691Z,11.73
2023-10-21T02:29:44.665Z,11.72
2023-10-21T02:30:05.634Z,11.69
2023-10-21T02:30:26.540Z,11.66
2023-10-21T02:30:47.487Z,11.63
2023-10-21T02:31:08.461Z,11.60
2023-10-21T02:31:29.523Z,11.54
2023-10-21T02:31:50.007Z,11.52
2023-10-21T02:32:10.884Z,11.52
2023-10-21T02:32:31.863Z,11.52
2023-10-21T02:32:52.827Z,11.54
2023-10-21T02:33:13.866Z,11.57
2023-10-21T02:33:34.348Z,11.55
2023-10-21T02:33:54.828Z,11.59
2023-10-21T02:34:15.722Z,11.59
2023-10-21T02:34:36.699Z,11.57
2023-10-21T02:34:57.660Z,11.59
2023-10-21T02:35:18.597Z,11.54
2023-10-21T02:35:39.554Z,11.51
2023-10-21T02:36:00.523Z,11.43
2023-10-21T02:36:21.504Z,11.37
2023-10-21T02:36:42.347Z,11.36
2023-10-21T02:37:03.329Z,11.32
2023-10-21T02:37:24.272Z,11.33
2023-10-21T02:37:45.225Z,11.33
2023-10-21T02:38:06.217Z,11.33
2023-10-21T02:38:27.143Z,11.30
2023-10-21T02:38:48.132Z,11.32
2023-10-21T02:39:09.265Z,11.32
2023-10-21T02:39:29.926Z,11.30
2023-10-21T02:39:50.907Z,11.26
2023-10-21T02:40:11.340Z,11.27
2023-10-21T02:40:32.270Z,11.29
2023-10-21T02:40:53.261Z,11.29
2023-10-21T02:41:13.744Z,11.27
2023-10-21T02:41:34.700Z,11.29
2023-10-21T02:41:55.682Z,11.30
2023-10-21T02:42:16.655Z,11.27
2023-10-21T02:42:37.530Z,11.26
2023-10-21T02:42:58.449Z,11.26
2023-10-21T02:43:19.389Z,11.25
2023-10-21T02:43:40.360Z,11.23
2023-10-21T02:44:01.334Z,11.22
2023-10-21T02:44:22.289Z,11.18
2023-10-21T02:44:43.215Z,11.17
2023-10-21T02:46:12.829Z,11.07
2023-10-21T02:46:33.752Z,11.02
2023-10-21T02:46:54.708Z,11.00
2023-10-21T02:47:15.628Z,10.99
2023-10-21T02:47:36.602Z,10.94
2023-10-21T02:47:57.657Z,10.93
2023-10-21T02:48:18.145Z,10.92
2023-10-21T02:48:39.248Z,10.89
2023-10-21T02:48:59.620Z,10.89
2023-10-21T02:49:20.545Z,10.90
2023-10-21T02:49:41.498Z,10.92
2023-10-21T02:50:02.431Z,10.92
2023-10-21T02:50:23.361Z,10.92
2023-10-21T02:50:44.331Z,10.90
2023-10-21T02:51:05.281Z,10.87
2023-10-21T02:51:26.200Z,10.89
2023-10-21T02:51:47.177Z,10.86
2023-10-21T02:52:08.126Z,10.89
2023-10-21T02:52:29.074Z,10.87
2023-10-21T02:52:50.040Z,10.90
2023-10-21T02:53:11.000Z,10.90
2023-10-21T02:53:31.910Z,10.93
2023-10-21T02:53:52.858Z,10.97
2023-10-21T02:54:13.817Z,11.02
2023-10-21T02:54:34.728Z,11.05
2023-10-21T02:54:55.672Z,11.05
2023-10-21T02:55:16.614Z,11.08
2023-10-21T02:55:37.584Z,11.11
2023-10-21T02:55:58.485Z,11.14
2023-10-21T02:56:19.428Z,11.18
2023-10-21T02:56:40.359Z,11.23
2023-10-21T02:57:01.361Z,11.23
2023-10-21T02:57:22.289Z,11.25
2023-10-21T02:57:43.198Z,11.29
2023-10-21T02:58:04.160Z,11.27
2023-10-21T02:58:25.084Z,11.29
2023-10-21T02:58:46.041Z,11.32
2023-10-21T02:59:06.974Z,11.30
2023-10-21T02:59:27.918Z,11.32
2023-10-21T02:59:48.899Z,11.33
2023-10-21T03:00:09.778Z,11.33
2023-10-21T03:00:30.715Z,11.36
2023-10-21T03:00:51.678Z,11.35
2023-10-21T03:01:12.612Z,11.36
2023-10-21T03:01:33.525Z,11.35
2023-10-21T03:01:54.463Z,11.36
2023-10-21T03:02:15.438Z,11.36
2023-10-21T03:02:36.395Z,11.35
2023-10-21T03:02:57.488Z,11.35
2023-10-21T03:03:18.331Z,11.33
2023-10-21T03:03:38.830Z,11.27
2023-10-21T03:03:59.394Z,11.26
2023-10-21T03:04:19.962Z,11.22
2023-10-21T03:04:40.349Z,11.18
2023-10-21T03:05:01.278Z,11.14
2023-10-21T03:05:22.246Z,11.10
2023-10-21T03:05:43.177Z,11.08
2023-10-21T03:06:04.104Z,11.07
2023-10-21T03:06:25.042Z,11.07
2023-10-21T03:06:45.981Z,11.05
2023-10-21T03:07:06.922Z,11.05
2023-10-21T03:07:27.849Z,11.04
2023-10-21T03:07:48.795Z,11.05
2023-10-21T03:08:09.702Z,11.02
2023-10-21T03:08:30.639Z,10.99
2023-10-21T03:08:51.581Z,10.97
2023-10-21T03:09:12.527Z,11.00
2023-10-21T03:09:33.514Z,10.99
2023-10-21T03:09:53.963Z,10.96
2023-10-21T03:10:14.888Z,10.97
2023-10-21T03:10:35.850Z,10.96
2023-10-21T03:10:56.765Z,10.90
2023-10-21T03:11:17.703Z,10.86
2023-10-21T03:11:38.634Z,10.86
2023-10-21T03:11:59.597Z,10.84
2023-10-21T03:12:20.561Z,10.86
2023-10-21T03:12:44.691Z,10.84
2023-10-21T03:13:02.197Z,10.82
2023-10-21T03:13:23.118Z,10.82
2023-10-21T03:13:44.068Z,10.82
2023-10-21T03:14:04.996Z,10.81
2023-10-21T03:14:25.986Z,10.81
2023-10-21T03:14:46.971Z,10.81
2023-10-21T03:15:07.953Z,10.79
2023-10-21T03:15:28.522Z,10.79
2023-10-21T03:15:49.250Z,10.79
2023-10-21T03:16:10.220Z,10.78
2023-10-21T03:16:31.109Z,10.76
2023-10-21T03:16:52.087Z,10.75
2023-10-21T03:17:13.035Z,10.74
2023-10-21T03:17:33.993Z,10.74
2023-10-21T03:17:55.011Z,10.72
2023-10-21T03:18:15.476Z,10.71
2023-10-21T03:18:36.514Z,10.69
2023-10-21T03:18:56.892Z,10.64
2023-10-21T03:19:17.842Z,10.63
2023-10-21T03:19:38.988Z,10.63
2023-10-21T03:19:59.482Z,10.63
2023-10-21T03:20:20.426Z,10.61
2023-10-21T03:20:41.395Z,10.63
2023-10-21T03:21:02.337Z,10.63
2023-10-21T03:21:23.320Z,10.64
2023-10-21T03:21:44.167Z,10.63
2023-10-21T03:22:05.090Z,10.61
2023-10-21T03:22:26.039Z,10.61
2023-10-21T03:22:46.999Z,10.61
2023-10-21T03:23:07.924Z,10.61
2023-10-21T03:23:28.885Z,10.60
2023-10-21T03:23:49.886Z,10.57
2023-10-21T03:24:10.802Z,10.57
2023-10-21T03:24:31.717Z,10.57
2023-10-21T03:26:01.685Z,10.56
2023-10-21T03:26:22.620Z,10.56
2023-10-21T03:26:43.568Z,10.53
2023-10-21T03:27:04.495Z,10.54
2023-10-21T03:27:25.498Z,10.53
2023-10-21T03:27:46.378Z,10.53
2023-10-21T03:28:07.291Z,10.49
2023-10-21T03:28:28.212Z,10.51
2023-10-21T03:28:49.187Z,10.49
2023-10-21T03:29:12.875Z,10.49
2023-10-21T03:29:30.658Z,10.49
2023-10-21T03:29:51.621Z,10.46
2023-10-21T03:30:12.596Z,10.46
2023-10-21T03:30:33.538Z,10.42
2023-10-21T03:30:54.546Z,10.44
2023-10-21T03:31:15.454Z,10.42
2023-10-21T03:31:36.414Z,10.42
2023-10-21T03:31:57.321Z,10.41
2023-10-21T03:32:18.248Z,10.40
2023-10-21T03:32:39.209Z,10.42
2023-10-21T03:33:00.212Z,10.41
2023-10-21T03:33:21.203Z,10.40
2023-10-21T03:33:42.105Z,10.41
2023-10-21T03:34:03.031Z,10.41
2023-10-21T03:34:23.977Z,10.41
2023-10-21T03:34:44.915Z,10.40
2023-10-21T03:35:05.867Z,10.40
2023-10-21T03:35:26.789Z,10.40
2023-10-21T03:35:47.722Z,10.38
2023-10-21T03:36:08.861Z,10.38
2023-10-21T03:36:29.256Z,10.38
2023-10-21T03:36:50.208Z,10.38
2023-10-21T03:37:11.149Z,10.34
2023-10-21T03:37:32.102Z,10.34
2023-10-21T03:37:53.064Z,10.35
2023-10-21T03:38:14.011Z,10.34
2023-10-21T03:38:34.934Z,10.34
2023-10-21T03:38:55.926Z,10.33
2023-10-21T03:39:16.859Z,10.31
2023-10-21T03:39:37.777Z,10.31
2023-10-21T03:39:58.694Z,10.30
2023-10-21T03:40:19.647Z,10.28
2023-10-21T03:40:40.598Z,10.26
2023-10-21T03:41:01.559Z,10.25
2023-10-21T03:41:22.521Z,10.25
2023-10-21T03:41:43.443Z,10.25
2023-10-21T03:42:04.422Z,10.25
2023-10-21T03:42:25.380Z,10.23
2023-10-21T03:42:46.256Z,10.22
2023-10-21T03:43:07.195Z,10.20
2023-10-21T03:43:28.125Z,10.20
2023-10-21T03:43:49.042Z,10.22
2023-10-21T03:44:10.000Z,10.20
2023-10-21T03:44:30.933Z,10.20
2023-10-21T03:44:51.905Z,10.19
2023-10-21T03:45:12.880Z,10.16
2023-10-21T03:45:33.781Z,10.17
2023-10-21T03:45:54.712Z,10.16
2023-10-21T03:46:16.009Z,10.16
2023-10-21T03:46:36.599Z,10.15
2023-10-21T03:46:57.560Z,10.13
2023-10-21T03:47:18.460Z,10.12
2023-10-21T03:47:39.423Z,10.12
2023-10-21T03:47:59.949Z,10.10
2023-10-21T03:48:21.029Z,10.10
2023-10-21T03:48:41.744Z,10.09
2023-10-21T03:49:02.652Z,10.07
2023-10-21T03:49:23.619Z,10.07
2023-10-21T03:49:44.579Z,10.04
2023-10-21T03:50:05.529Z,10.05
2023-10-21T03:50:26.486Z,10.04
2023-10-21T03:50:47.481Z,10.02
2023-10-21T03:51:08.402Z,10.01
2023-10-21T03:51:29.339Z,10.01
2023-10-21T03:51:50.285Z,10.01
2023-10-21T03:52:11.228Z,9.95
2023-10-21T03:52:32.178Z,9.95
2023-10-21T03:52:53.108Z,9.95
2023-10-21T03:53:14.048Z,9.95
2023-10-21T03:53:34.978Z,9.91
2023-10-21T03:53:56.007Z,9.89
2023-10-21T03:54:16.984Z,9.91
2023-10-21T03:54:37.971Z,9.89
2023-10-21T03:54:58.445Z,9.89
2023-10-21T03:55:19.348Z,9.89
2023-10-21T03:55:40.283Z,9.91
2023-10-21T03:56:02.137Z,9.89
2023-10-21T03:56:21.822Z,9.87
2023-10-21T03:56:42.750Z,9.86
2023-10-21T03:57:03.723Z,9.87
2023-10-21T03:57:24.737Z,9.87
2023-10-21T03:57:45.644Z,9.84
2023-10-21T03:58:06.626Z,9.86
2023-10-21T03:58:27.535Z,9.83
2023-10-21T03:58:48.479Z,9.84
2023-10-21T03:59:09.404Z,9.83
2023-10-21T03:59:30.320Z,9.83
2023-10-21T03:59:51.297Z,9.82
2023-10-21T04:00:12.265Z,9.80
2023-10-21T04:00:33.194Z,9.83
2023-10-21T04:00:54.154Z,9.82
2023-10-21T04:01:15.253Z,9.80
2023-10-21T04:01:35.673Z,9.80
2023-10-21T04:01:56.629Z,9.80
2023-10-21T04:02:17.552Z,9.80
2023-10-21T04:02:38.482Z,9.82
2023-10-21T04:02:59.610Z,9.82
2023-10-21T04:03:20.168Z,9.80
2023-10-21T04:03:40.739Z,9.83
2023-10-21T04:04:01.517Z,9.83
2023-10-21T04:04:22.408Z,9.82
2023-10-21T04:04:42.964Z,9.84
2023-10-21T04:05:03.401Z,9.84
2023-10-21T04:05:24.349Z,9.84
2023-10-21T04:05:45.394Z,9.84
2023-10-21T04:06:05.797Z,9.86
2023-10-21T04:06:26.790Z,9.89
2023-10-21T04:06:47.691Z,9.87
2023-10-21T04:07:08.636Z,9.91
2023-10-21T04:07:29.560Z,9.91
2023-10-21T04:07:50.499Z,9.91
2023-10-21T04:08:10.991Z,9.92
2023-10-21T04:08:32.017Z,9.91
2023-10-21T04:08:52.496Z,9.92
2023-10-21T04:09:13.445Z,9.95
2023-10-21T04:09:34.342Z,9.94
2023-10-21T04:09:55.311Z,9.94
2023-10-21T04:10:16.218Z,9.95
2023-10-21T04:10:37.176Z,9.98
2023-10-21T04:10:58.118Z,9.98
2023-10-21T04:11:19.053Z,9.98
2023-10-21T04:11:39.970Z,9.98
2023-10-21T04:12:00.954Z,9.97
2023-10-21T04:12:21.921Z,9.98
2023-10-21T04:12:42.820Z,9.98
2023-10-21T04:13:03.783Z,9.97
2023-10-21T04:13:24.717Z,9.97
2023-10-21T04:13:45.639Z,9.95
2023-10-21T04:14:06.603Z,9.98
2023-10-21T04:14:27.591Z,9.98
2023-10-21T04:14:48.576Z,9.97
2023-10-21T04:15:09.581Z,9.98
2023-10-21T04:15:30.436Z,9.99
2023-10-21T04:15:51.392Z,9.98
2023-10-21T04:16:12.404Z,9.99
2023-10-21T04:16:33.303Z,9.98
2023-10-21T04:16:54.232Z,9.99
2023-10-21T04:17:15.170Z,9.98
2023-10-21T04:17:36.122Z,9.99
2023-10-21T04:17:57.157Z,9.99
2023-10-21T04:18:18.067Z,10.01
2023-10-21T04:18:39.062Z,9.98
2023-10-21T04:19:00.197Z,10.01
2023-10-21T04:19:20.629Z,10.01
2023-10-21T04:19:41.548Z,9.99
2023-10-21T04:20:02.516Z,10.01
2023-10-21T04:20:23.483Z,10.01
2023-10-21T04:20:44.407Z,10.02
2023-10-21T04:21:05.386Z,10.04
2023-10-21T04:21:26.444Z,10.04
2023-10-21T04:21:46.891Z,10.04
2023-10-21T04:22:07.809Z,10.04
2023-10-21T04:22:28.753Z,10.05
2023-10-21T04:22:49.675Z,10.05
2023-10-21T04:23:10.595Z,10.07
2023-10-21T04:23:31.513Z,10.05
2023-10-21T04:23:52.470Z,10.07
2023-10-21T04:24:13.424Z,10.07
2023-10-21T04:24:34.668Z,10.10
2023-10-21T04:24:55.189Z,10.12
2023-10-21T04:25:16.166Z,10.12
2023-10-21T04:25:37.127Z,10.10
2023-10-21T04:25:58.070Z,10.10
2023-10-21T04:26:21.007Z,10.13
2023-10-21T04:26:39.880Z,10.16
2023-10-21T04:27:00.816Z,10.16
2023-10-21T04:27:21.744Z,10.16
2023-10-21T04:27:42.666Z,10.17
2023-10-21T04:28:03.609Z,10.19
2023-10-21T04:28:24.562Z,10.22
2023-10-21T04:28:45.497Z,10.20
2023-10-21T04:29:06.440Z,10.20
2023-10-21T04:29:27.396Z,10.20
2023-10-21T04:29:48.354Z,10.22
2023-10-21T04:30:09.359Z,10.23
2023-10-21T04:30:29.896Z,10.22
2023-10-21T04:30:50.457Z,10.23
2023-10-21T04:31:11.386Z,10.26
2023-10-21T04:31:32.307Z,10.25
2023-10-21T04:31:53.223Z,10.26
2023-10-21T04:32:14.167Z,10.25